sensor_id;sensor_type;location;lat;lon;timestamp;pressure;altitude;pressure_sealevel;temperature;humidity
57904;BME280;43720;47.462;19.030;2023-05-12T03:59:43;100443.87;;;11.73;100.00
57904;BME280;43720;47.462;19.030;2023-05-12T04:02:46;100462.19;;;11.70;100.00
57904;BME280;43720;47.462;19.030;2023-05-12T04:05:49;100461.34;;;11.74;100.00
57904;BME280;43720;47.462;19.030;2023-05-12T04:08:51;100465.84;;;11.83;100.00
57904;BME280;43720;47.462;19.030;2023-05-12T04:11:53;100468.50;;;11.88;100.00
57904;BME280;43720;47.462;19.030;2023-05-12T04:14:56;100470.13;;;11.78;100.00
57904;BME280;43720;47.462;19.030;2023-05-12T04:17:59;100469.09;;;11.65;100.00
57904;BME280;43720;47.462;19.030;2023-05-12T04:21:01;100474.50;;;11.81;100.00
57904;BME280;43720;47.462;19.030;2023-05-12T04:24:04;100474.69;;;11.93;100.00
57904;BME280;43720;47.462;19.030;2023-05-12T04:27:07;100470.91;;;11.72;100.00
57904;BME280;43720;47.462;19.030;2023-05-12T04:30:10;100482.16;;;11.64;100.00
57904;BME280;43720;47.462;19.030;2023-05-12T04:33:12;100479.66;;;11.71;100.00
57904;BME280;43720;47.462;19.030;2023-05-12T04:36:15;100480.44;;;11.64;100.00
57904;BME280;43720;47.462;19.030;2023-05-12T04:39:18;100485.97;;;11.86;100.00
57904;BME280;43720;47.462;19.030;2023-05-12T04:42:21;100484.16;;;11.83;100.00
57904;BME280;43720;47.462;19.030;2023-05-12T04:45:23;100482.34;;;11.79;100.00
57904;BME280;43720;47.462;19.030;2023-05-12T04:48:26;100478.91;;;11.82;100.00
57904;BME280;43720;47.462;19.030;2023-05-12T04:51:30;100472.78;;;11.81;100.00
57904;BME280;43720;47.462;19.030;2023-05-12T04:54:33;100475.59;;;11.96;100.00
57904;BME280;43720;47.462;19.030;2023-05-12T04:57:35;100477.28;;;11.91;100.00
57904;BME280;43720;47.462;19.030;2023-05-12T05:00:38;100480.75;;;11.89;100.00
57904;BME280;43720;47.462;19.030;2023-05-12T05:03:41;100480.59;;;11.78;100.00
57904;BME280;43720;47.462;19.030;2023-05-12T05:06:43;100482.16;;;11.64;100.00
57904;BME280;43720;47.462;19.030;2023-05-12T05:09:46;100484.00;;;11.69;100.00
57904;BME280;43720;47.462;19.030;2023-05-12T05:12:49;100482.34;;;11.78;100.00
57904;BME280;43720;47.462;19.030;2023-05-12T05:15:52;100490.25;;;11.82;100.00
57904;BME280;43720;47.462;19.030;2023-05-12T05:18:55;100497.44;;;11.97;100.00
57904;BME280;43720;47.462;19.030;2023-05-12T05:21:59;100488.47;;;11.80;100.00
57904;BME280;43720;47.462;19.030;2023-05-12T05:25:03;100485.78;;;11.75;100.00
57904;BME280;43720;47.462;19.030;2023-05-12T05:28:06;100488.41;;;11.73;100.00
57904;BME280;43720;47.462;19.030;2023-05-12T05:31:15;100481.56;;;11.85;100.00
57904;BME280;43720;47.462;19.030;2023-05-12T05:34:18;100483.38;;;11.90;100.00
57904;BME280;43720;47.462;19.030;2023-05-12T05:37:21;100483.25;;;11.81;100.00
57904;BME280;43720;47.462;19.030;2023-05-12T05:40:23;100482.34;;;11.79;100.00
57904;BME280;43720;47.462;19.030;2023-05-12T05:43:26;100485.84;;;11.80;100.00
57904;BME280;43720;47.462;19.030;2023-05-12T05:46:28;100490.22;;;11.81;100.00
57904;BME280;43720;47.462;19.030;2023-05-12T05:49:31;100491.03;;;11.76;100.00
57904;BME280;43720;47.462;19.030;2023-05-12T05:52:34;100502.50;;;11.85;100.00
57904;BME280;43720;47.462;19.030;2023-05-12T05:55:37;100501.72;;;11.90;100.00
57904;BME280;43720;47.462;19.030;2023-05-12T05:58:43;100499.22;;;12.03;100.00
57904;BME280;43720;47.462;19.030;2023-05-12T06:01:47;100501.97;;;12.13;100.00
57904;BME280;43720;47.462;19.030;2023-05-12T06:04:53;100501.91;;;12.09;100.00
57904;BME280;43720;47.462;19.030;2023-05-12T06:07:55;100505.34;;;12.03;100.00
57904;BME280;43720;47.462;19.030;2023-05-12T06:10:59;100513.34;;;12.18;100.00
57904;BME280;43720;47.462;19.030;2023-05-12T06:14:01;100513.25;;;12.08;100.00
57904;BME280;43720;47.462;19.030;2023-05-12T06:17:06;100509.75;;;12.07;100.00
57904;BME280;43720;47.462;19.030;2023-05-12T06:20:09;100508.84;;;12.02;100.00
57904;BME280;43720;47.462;19.030;2023-05-12T06:23:12;100512.16;;;11.87;100.00
57904;BME280;43720;47.462;19.030;2023-05-12T06:26:14;100504.38;;;11.95;100.00
57904;BME280;43720;47.462;19.030;2023-05-12T06:29:16;100512.31;;;12.03;100.00
57904;BME280;43720;47.462;19.030;2023-05-12T06:32:19;100512.41;;;12.12;100.00
57904;BME280;43720;47.462;19.030;2023-05-12T06:35:21;100515.03;;;12.12;100.00
57904;BME280;43720;47.462;19.030;2023-05-12T06:38:23;100510.69;;;12.12;100.00
57904;BME280;43720;47.462;19.030;2023-05-12T06:41:26;100508.09;;;12.15;100.00
57904;BME280;43720;47.462;19.030;2023-05-12T06:44:28;100513.28;;;12.11;100.00
57904;BME280;43720;47.462;19.030;2023-05-12T06:47:30;100514.28;;;12.20;100.00
57904;BME280;43720;47.462;19.030;2023-05-12T06:50:33;100513.28;;;12.11;100.00
57904;BME280;43720;47.462;19.030;2023-05-12T06:53:35;100510.78;;;12.20;100.00
57904;BME280;43720;47.462;19.030;2023-05-12T06:56:40;100508.28;;;12.34;100.00
57904;BME280;43720;47.462;19.030;2023-05-12T06:59:43;100509.91;;;12.22;100.00
57904;BME280;43720;47.462;19.030;2023-05-12T07:02:45;100505.53;;;12.20;100.00
57904;BME280;43720;47.462;19.030;2023-05-12T07:05:47;100512.63;;;12.32;100.00
57904;BME280;43720;47.462;19.030;2023-05-12T07:08:50;100511.03;;;12.47;100.00
57904;BME280;43720;47.462;19.030;2023-05-12T07:11:52;100506.66;;;12.49;100.00
57904;BME280;43720;47.462;19.030;2023-05-12T07:14:55;100514.63;;;12.60;100.00
57904;BME280;43720;47.462;19.030;2023-05-12T07:17:57;100510.28;;;12.65;100.00
57904;BME280;43720;47.462;19.030;2023-05-12T07:20:59;100511.16;;;12.63;100.00
57904;BME280;43720;47.462;19.030;2023-05-12T07:24:02;100510.28;;;12.62;100.00
57904;BME280;43720;47.462;19.030;2023-05-12T07:27:06;100508.50;;;12.61;100.00
57904;BME280;43720;47.462;19.030;2023-05-12T07:30:09;100505.81;;;12.54;100.00
57904;BME280;43720;47.462;19.030;2023-05-12T07:33:12;100499.72;;;12.58;100.00
57904;BME280;43720;47.462;19.030;2023-05-12T07:36:14;100504.97;;;12.56;100.00
57904;BME280;43720;47.462;19.030;2023-05-12T07:39:17;100506.78;;;12.63;100.00
57904;BME280;43720;47.462;19.030;2023-05-12T07:42:28;100502.44;;;12.67;100.00
57904;BME280;43720;47.462;19.030;2023-05-12T07:45:30;100501.56;;;12.68;100.00
57904;BME280;43720;47.462;19.030;2023-05-12T07:48:33;100506.97;;;12.88;100.00
57904;BME280;43720;47.462;19.030;2023-05-12T07:51:40;100509.62;;;12.91;100.00
57904;BME280;43720;47.462;19.030;2023-05-12T07:54:43;100508.75;;;12.92;100.00
57904;BME280;43720;47.462;19.030;2023-05-12T07:57:45;100512.25;;;12.91;100.00
57904;BME280;43720;47.462;19.030;2023-05-12T08:00:48;100503.56;;;12.98;100.00
57904;BME280;43720;47.462;19.030;2023-05-12T08:03:50;100504.41;;;13.00;100.00
57904;BME280;43720;47.462;19.030;2023-05-12T08:06:53;100511.44;;;13.01;100.00
57904;BME280;43720;47.462;19.030;2023-05-12T08:09:56;100518.47;;;13.07;100.00
57904;BME280;43720;47.462;19.030;2023-05-12T08:12:58;100514.94;;;13.02;100.00
57904;BME280;43720;47.462;19.030;2023-05-12T08:16:01;100517.63;;;13.09;100.00
57904;BME280;43720;47.462;19.030;2023-05-12T08:19:03;100517.63;;;13.15;100.00
57904;BME280;43720;47.462;19.030;2023-05-12T08:22:06;100521.19;;;13.20;100.00
57904;BME280;43720;47.462;19.030;2023-05-12T08:25:08;100519.47;;;13.24;100.00
57904;BME280;43720;47.462;19.030;2023-05-12T08:28:14;100521.16;;;13.14;100.00
57904;BME280;43720;47.462;19.030;2023-05-12T08:31:16;100520.22;;;13.06;100.00
57904;BME280;43720;47.462;19.030;2023-05-12T08:34:19;100521.94;;;13.03;100.00
57904;BME280;43720;47.462;19.030;2023-05-12T08:37:22;100525.44;;;13.03;100.00
57904;BME280;43720;47.462;19.030;2023-05-12T08:40:29;100532.53;;;13.18;100.00
57904;BME280;43720;47.462;19.030;2023-05-12T08:43:47;100526.41;;;13.17;100.00
57904;BME280;43720;47.462;19.030;2023-05-12T08:46:53;100526.53;;;13.28;100.00
57904;BME280;43720;47.462;19.030;2023-05-12T08:49:59;100534.44;;;13.39;100.00
57904;BME280;43720;47.462;19.030;2023-05-12T08:53:03;100530.91;;;13.35;100.00
57904;BME280;43720;47.462;19.030;2023-05-12T08:56:09;100537.94;;;13.33;100.00
57904;BME280;43720;47.462;19.030;2023-05-12T08:59:15;100542.31;;;13.33;100.00
57904;BME280;43720;47.462;19.030;2023-05-12T09:02:20;100535.31;;;13.36;100.00
57904;BME280;43720;47.462;19.030;2023-05-12T09:05:26;100537.94;;;13.36;100.00
57904;BME280;43720;47.462;19.030;2023-05-12T09:08:29;100535.28;;;13.32;100.00
57904;BME280;43720;47.462;19.030;2023-05-12T09:11:34;100543.16;;;13.33;100.00
57904;BME280;43720;47.462;19.030;2023-05-12T09:14:37;100545.72;;;13.24;100.00
57904;BME280;43720;47.462;19.030;2023-05-12T09:17:45;100550.78;;;12.98;100.00
57904;BME280;43720;47.462;19.030;2023-05-12T09:20:47;100552.44;;;12.88;100.00
57904;BME280;43720;47.462;19.030;2023-05-12T09:24:00;100561.19;;;12.86;100.00
57904;BME280;43720;47.462;19.030;2023-05-12T09:27:06;100562.87;;;12.81;100.00
57904;BME280;43720;47.462;19.030;2023-05-12T09:30:10;100559.44;;;12.88;100.00
57904;BME280;43720;47.462;19.030;2023-05-12T09:33:12;100558.44;;;12.72;100.00
57904;BME280;43720;47.462;19.030;2023-05-12T09:36:24;100572.44;;;12.71;100.00
57904;BME280;43720;47.462;19.030;2023-05-12T09:39:27;100578.41;;;12.56;100.00
57904;BME280;43720;47.462;19.030;2023-05-12T09:42:31;100587.84;;;12.37;100.00
57904;BME280;43720;47.462;19.030;2023-05-12T09:45:35;100587.84;;;12.37;100.00
57904;BME280;43720;47.462;19.030;2023-05-12T09:48:37;100589.66;;;12.44;100.00
57904;BME280;43720;47.462;19.030;2023-05-12T09:51:40;100582.75;;;12.53;100.00
57904;BME280;43720;47.462;19.030;2023-05-12T09:54:43;100588.06;;;12.62;100.00
57904;BME280;43720;47.462;19.030;2023-05-12T09:57:45;100594.25;;;12.67;100.00
57904;BME280;43720;47.462;19.030;2023-05-12T10:00:48;100593.28;;;12.57;100.00
57904;BME280;43720;47.462;19.030;2023-05-12T10:04:13;100590.75;;;12.66;100.00
57904;BME280;43720;47.462;19.030;2023-05-12T10:07:17;100594.22;;;12.64;100.00
57904;BME280;43720;47.462;19.030;2023-05-12T10:10:25;100586.16;;;12.44;100.00
57904;BME280;43720;47.462;19.030;2023-05-12T10:13:27;100591.38;;;12.41;100.00
57904;BME280;43720;47.462;19.030;2023-05-12T10:16:32;100591.38;;;12.41;100.00
57904;BME280;43720;47.462;19.030;2023-05-12T10:19:34;100586.13;;;12.41;100.00
57904;BME280;43720;47.462;19.030;2023-05-12T10:22:38;100585.22;;;12.36;100.00
57904;BME280;43720;47.462;19.030;2023-05-12T10:25:42;100572.75;;;12.16;100.00
57904;BME280;43720;47.462;19.030;2023-05-12T10:28:47;100586.47;;;11.94;100.00
57904;BME280;43720;47.462;19.030;2023-05-12T10:31:49;100573.34;;;11.92;100.00
57904;BME280;43720;47.462;19.030;2023-05-12T10:34:52;100576.00;;;11.94;100.00
57904;BME280;43720;47.462;19.030;2023-05-12T10:37:54;100581.38;;;12.06;100.00
57904;BME280;43720;47.462;19.030;2023-05-12T10:41:03;100581.38;;;12.06;100.00
57904;BME280;43720;47.462;19.030;2023-05-12T10:44:06;100588.41;;;12.10;100.00
57904;BME280;43720;47.462;19.030;2023-05-12T10:47:12;100584.91;;;12.10;100.00
57904;BME280;43720;47.462;19.030;2023-05-12T10:50:25;100585.03;;;12.20;100.00
57904;BME280;43720;47.462;19.030;2023-05-12T10:53:32;100585.13;;;12.31;100.00
57904;BME280;43720;47.462;19.030;2023-05-12T10:56:49;100594.06;;;12.47;100.00
57904;BME280;43720;47.462;19.030;2023-05-12T10:59:58;100597.56;;;12.47;100.00
57904;BME280;43720;47.462;19.030;2023-05-12T11:03:01;100593.28;;;12.57;100.00
57904;BME280;43720;47.462;19.030;2023-05-12T11:06:17;100599.37;;;12.56;100.00
57904;BME280;43720;47.462;19.030;2023-05-12T11:09:20;100591.47;;;12.52;100.00
57904;BME280;43720;47.462;19.030;2023-05-12T11:12:26;100590.44;;;12.36;100.00
57904;BME280;43720;47.462;19.030;2023-05-12T11:15:29;100585.87;;;12.19;100.00
57904;BME280;43720;47.462;19.030;2023-05-12T11:18:32;100588.44;;;12.15;100.00
57904;BME280;43720;47.462;19.030;2023-05-12T11:21:34;100590.19;;;12.14;100.00
57904;BME280;43720;47.462;19.030;2023-05-12T11:24:39;100590.97;;;12.07;100.00
57904;BME280;43720;47.462;19.030;2023-05-12T11:27:48;100593.66;;;12.10;100.00
57904;BME280;43720;47.462;19.030;2023-05-12T11:30:54;100597.09;;;12.06;100.00
57904;BME280;43720;47.462;19.030;2023-05-12T11:34:04;100590.16;;;12.11;100.00
57904;BME280;43720;47.462;19.030;2023-05-12T11:37:14;100594.59;;;12.17;100.00
57904;BME280;43720;47.462;19.030;2023-05-12T11:40:21;100583.38;;;12.29;100.00
57904;BME280;43720;47.462;19.030;2023-05-12T11:43:24;100586.03;;;12.32;100.00
57904;BME280;43720;47.462;19.030;2023-05-12T11:46:28;100592.19;;;12.38;100.00
57904;BME280;43720;47.462;19.030;2023-05-12T11:49:31;100583.47;;;12.36;100.00
57904;BME280;43720;47.462;19.030;2023-05-12T11:52:33;100586.09;;;12.38;100.00
57904;BME280;43720;47.462;19.030;2023-05-12T11:55:36;100591.38;;;12.39;100.00
57904;BME280;43720;47.462;19.030;2023-05-12T11:58:38;100588.75;;;12.41;100.00
57904;BME280;43720;47.462;19.030;2023-05-12T12:01:44;100590.53;;;12.43;100.00
57904;BME280;43720;47.462;19.030;2023-05-12T12:04:50;100590.44;;;12.37;100.00
57904;BME280;43720;47.462;19.030;2023-05-12T12:08:03;100581.78;;;12.46;100.00
57904;BME280;43720;47.462;19.030;2023-05-12T12:11:06;100593.16;;;12.45;100.00
57904;BME280;43720;47.462;19.030;2023-05-12T12:14:08;100596.63;;;12.42;100.00
57904;BME280;43720;47.462;19.030;2023-05-12T12:17:11;100589.63;;;12.41;100.00
57904;BME280;43720;47.462;19.030;2023-05-12T12:20:13;100590.50;;;12.42;100.00
57904;BME280;43720;47.462;19.030;2023-05-12T12:23:19;100590.44;;;12.36;100.00
57904;BME280;43720;47.462;19.030;2023-05-12T12:26:22;100600.03;;;12.34;100.00
57904;BME280;43720;47.462;19.030;2023-05-12T12:29:24;100600.03;;;12.32;100.00
57904;BME280;43720;47.462;19.030;2023-05-12T12:32:29;100600.94;;;12.36;100.00
57904;BME280;43720;47.462;19.030;2023-05-12T12:35:32;100599.16;;;12.32;100.00
57904;BME280;43720;47.462;19.030;2023-05-12T12:38:34;100604.41;;;12.35;100.00
57904;BME280;43720;47.462;19.030;2023-05-12T12:41:37;100610.37;;;12.21;100.00
57904;BME280;43720;47.462;19.030;2023-05-12T12:44:39;100603.22;;;12.07;100.00
57904;BME280;43720;47.462;19.030;2023-05-12T12:47:41;100610.19;;;12.08;100.00
57904;BME280;43720;47.462;19.030;2023-05-12T12:50:44;100612.09;;;12.18;100.00
57904;BME280;43720;47.462;19.030;2023-05-12T12:53:46;100606.87;;;12.22;100.00
57904;BME280;43720;47.462;19.030;2023-05-12T12:56:48;100608.66;;;12.23;100.00
57904;BME280;43720;47.462;19.030;2023-05-12T12:59:51;100608.59;;;12.19;100.00
57904;BME280;43720;47.462;19.030;2023-05-12T13:02:54;100614.75;;;12.21;100.00
57904;BME280;43720;47.462;19.030;2023-05-12T13:05:57;100606.25;;;12.45;100.00
57904;BME280;43720;47.462;19.030;2023-05-12T13:09:00;100606.19;;;12.39;100.00
57904;BME280;43720;47.462;19.030;2023-05-12T13:12:03;100608.75;;;12.34;100.00
57904;BME280;43720;47.462;19.030;2023-05-12T13:15:06;100612.25;;;12.35;100.00
57904;BME280;43720;47.462;19.030;2023-05-12T13:18:08;100608.62;;;12.20;100.00
57904;BME280;43720;47.462;19.030;2023-05-12T13:21:11;100609.50;;;12.22;100.00
57904;BME280;43720;47.462;19.030;2023-05-12T13:24:13;100614.78;;;12.27;100.00
57904;BME280;43720;47.462;19.030;2023-05-12T13:27:15;100608.59;;;12.19;100.00
57904;BME280;43720;47.462;19.030;2023-05-12T13:30:18;100609.47;;;12.16;100.00
57904;BME280;43720;47.462;19.030;2023-05-12T13:33:20;100623.41;;;12.15;100.00
57904;BME280;43720;47.462;19.030;2023-05-12T13:36:22;100615.53;;;12.12;100.00
57904;BME280;43720;47.462;19.030;2023-05-12T13:39:24;100616.31;;;12.05;100.00
57904;BME280;43720;47.462;19.030;2023-05-12T13:42:27;100611.94;;;12.06;100.00
57904;BME280;43720;47.462;19.030;2023-05-12T13:45:29;100614.62;;;12.12;100.00
57904;BME280;43720;47.462;19.030;2023-05-12T13:48:31;100612.91;;;12.15;100.00
57904;BME280;43720;47.462;19.030;2023-05-12T13:51:34;100617.28;;;12.13;100.00
57904;BME280;43720;47.462;19.030;2023-05-12T13:54:36;100609.38;;;12.12;100.00
57904;BME280;43720;47.462;19.030;2023-05-12T13:57:38;100615.44;;;12.06;100.00
57904;BME280;43720;47.462;19.030;2023-05-12T14:00:41;100615.34;;;12.00;100.00
57904;BME280;43720;47.462;19.030;2023-05-12T14:03:43;100612.72;;;11.97;100.00
57904;BME280;43720;47.462;19.030;2023-05-12T14:06:46;100613.53;;;11.93;100.00
57904;BME280;43720;47.462;19.030;2023-05-12T14:09:48;100609.94;;;11.86;100.00
57904;BME280;43720;47.462;19.030;2023-05-12T14:12:51;100631.62;;;11.78;100.00
57904;BME280;43720;47.462;19.030;2023-05-12T14:15:54;100629.78;;;11.70;100.00
57904;BME280;43720;47.462;19.030;2023-05-12T14:18:56;100632.25;;;11.60;100.00
57904;BME280;43720;47.462;19.030;2023-05-12T14:22:00;100637.47;;;11.58;100.00
57904;BME280;43720;47.462;19.030;2023-05-12T14:25:10;100629.84;;;11.76;100.00
57904;BME280;43720;47.462;19.030;2023-05-12T14:28:13;100631.84;;;11.90;100.00
57904;BME280;43720;47.462;19.030;2023-05-12T14:31:15;100630.13;;;11.93;100.00
57904;BME280;43720;47.462;19.030;2023-05-12T14:34:18;100643.81;;;11.75;100.00
57904;BME280;43720;47.462;19.030;2023-05-12T14:37:21;100641.16;;;11.72;100.00
57904;BME280;43720;47.462;19.030;2023-05-12T14:40:23;100648.88;;;11.63;100.00
57904;BME280;43720;47.462;19.030;2023-05-12T14:43:25;100653.25;;;11.64;100.00
57904;BME280;43720;47.462;19.030;2023-05-12T14:46:28;100660.28;;;11.67;100.00
57904;BME280;43720;47.462;19.030;2023-05-12T14:49:30;100656.03;;;11.73;100.00
57904;BME280;43720;47.462;19.030;2023-05-12T14:52:33;100657.72;;;11.70;100.00
57904;BME280;43720;47.462;19.030;2023-05-12T14:55:39;100663.78;;;11.69;100.00
57904;BME280;43720;47.462;19.030;2023-05-12T14:58:41;100662.91;;;11.68;100.00
57904;BME280;43720;47.462;19.030;2023-05-12T15:01:44;100668.09;;;11.65;100.00
57904;BME280;43720;47.462;19.030;2023-05-12T15:04:47;100664.63;;;11.65;100.00
57904;BME280;43720;47.462;19.030;2023-05-12T15:07:49;100672.72;;;11.82;100.00
57904;BME280;43720;47.462;19.030;2023-05-12T15:10:51;100670.16;;;11.83;100.00
57904;BME280;43720;47.462;19.030;2023-05-12T15:13:53;100670.16;;;11.85;100.00
57904;BME280;43720;47.462;19.030;2023-05-12T15:16:56;100670.06;;;11.77;100.00
